Time;durP1;ratioP1;P1;durP2;ratioP2;P2;SDS_P1;SDS_P2;PMS_P1;PMS_P2;Temp;Humidity;BMP_temperature;BMP_pressure;BME280_temperature;BME280_humidity;BME280_pressure;Samples;Min_cycle;Max_cycle;Signal;HPM_P1;HPM_P2
2022/03/08 00:01:31;;;;;;;34.78;25.50;;;;;;;;;;4985929;28;20560;-68
2022/03/08 00:04:00;;;;;;;41.42;26.58;;;;;;;;;;4985002;28;20084;-67
2022/03/08 00:06:29;;;;;;;32.53;24.88;;;;;;;;;;4985922;28;20050;-68
2022/03/08 00:08:57;;;;;;;37.05;26.20;;;;;;;;;;4978234;28;20061;-68
2022/03/08 00:11:24;;;;;;;33.63;24.73;;;;;;;;;;4986453;28;20050;-68
2022/03/08 00:13:52;;;;;;;33.88;24.23;;;;;;;;;;4974838;28;20505;-67
2022/03/08 00:16:21;;;;;;;34.92;25.15;;;;;;;;;;4986828;28;20039;-68
2022/03/08 00:18:49;;;;;;;35.05;23.70;;;;;;;;;;4987243;28;20046;-68
2022/03/08 00:21:18;;;;;;;34.47;25.30;;;;;;;;;;4992620;28;20065;-68
2022/03/08 00:23:47;;;;;;;29.38;21.92;;;;;;;;;;4993973;28;20105;-68
2022/03/08 00:26:15;;;;;;;35.55;23.88;;;;;;;;;;4993247;28;20042;-68
2022/03/08 00:28:43;;;;;;;28.73;20.95;;;;;;;;;;4991944;28;20125;-68
2022/03/08 00:31:10;;;;;;;28.33;21.52;;;;;;;;;;4992039;28;20112;-67
2022/03/08 00:33:40;;;;;;;29.60;22.60;;;;;;;;;;4993243;28;20061;-67
2022/03/08 00:36:08;;;;;;;29.13;21.50;;;;;;;;;;4993569;28;20097;-68
2022/03/08 00:38:35;;;;;;;30.70;22.40;;;;;;;;;;4977367;28;20093;-67
2022/03/08 00:41:03;;;;;;;31.63;21.98;;;;;;;;;;4993398;28;20054;-67
2022/03/08 00:43:32;;;;;;;33.88;22.30;;;;;;;;;;4991942;28;20058;-67
2022/03/08 00:45:59;;;;;;;32.42;22.50;;;;;;;;;;4988534;28;20101;-67
2022/03/08 00:48:29;;;;;;;29.38;22.90;;;;;;;;;;4975286;28;20061;-67
2022/03/08 00:50:57;;;;;;;31.38;22.90;;;;;;;;;;4990499;28;20437;-67
2022/03/08 00:53:25;;;;;;;29.65;21.85;;;;;;;;;;5008417;28;20121;-67
2022/03/08 00:55:52;;;;;;;31.23;23.00;;;;;;;;;;5008199;28;20077;-67
2022/03/08 00:58:21;;;;;;;33.53;22.73;;;;;;;;;;4992506;28;20453;-67
2022/03/08 01:00:48;;;;;;;32.17;24.48;;;;;;;;;;4982550;28;20069;-67
2022/03/08 01:03:16;;;;;;;33.65;24.30;;;;;;;;;;4974383;28;20050;-67
2022/03/08 01:05:44;;;;;;;35.05;23.48;;;;;;;;;;4972559;28;20058;-67
2022/03/08 01:08:13;;;;;;;33.45;22.85;;;;;;;;;;4980553;28;20494;-67
2022/03/08 01:10:41;;;;;;;27.80;20.23;;;;;;;;;;4992348;28;20058;-66
2022/03/08 01:13:10;;;;;;;29.13;21.75;;;;;;;;;;4976016;28;20525;-67
2022/03/08 01:15:38;;;;;;;27.33;20.88;;;;;;;;;;4990046;28;20138;-67
2022/03/08 01:18:06;;;;;;;27.42;18.77;;;;;;;;;;4992091;28;20383;-67
2022/03/08 01:20:34;;;;;;;25.30;19.35;;;;;;;;;;4996636;28;20081;-66
2022/03/08 01:23:02;;;;;;;27.13;19.52;;;;;;;;;;4995413;28;20133;-68
2022/03/08 01:25:30;;;;;;;24.10;19.08;;;;;;;;;;4996957;28;20095;-67
2022/03/08 01:27:58;;;;;;;30.83;21.45;;;;;;;;;;4996789;28;20149;-67
2022/03/08 01:30:26;;;;;;;33.40;22.38;;;;;;;;;;4995998;28;20044;-67
2022/03/08 01:32:54;;;;;;;30.02;20.88;;;;;;;;;;4996350;28;20056;-67
2022/03/08 01:35:22;;;;;;;26.90;20.13;;;;;;;;;;4996643;28;20058;-66
2022/03/08 01:37:51;;;;;;;27.67;20.73;;;;;;;;;;4995945;28;20065;-67
2022/03/08 01:40:19;;;;;;;27.75;21.05;;;;;;;;;;4995382;28;20050;-67
2022/03/08 01:42:49;;;;;;;31.50;22.42;;;;;;;;;;4996307;28;20141;-67
2022/03/08 01:45:38;;;;;;;30.50;23.23;;;;;;;;;;4996299;28;20465;-66
2022/03/08 01:48:06;;;;;;;27.98;20.75;;;;;;;;;;4995600;28;20050;-66
2022/03/08 01:50:33;;;;;;;33.33;22.83;;;;;;;;;;4976647;28;20055;-66
2022/03/08 01:53:01;;;;;;;33.38;23.63;;;;;;;;;;4981585;28;20046;-66
2022/03/08 01:55:30;;;;;;;31.00;24.50;;;;;;;;;;4987869;28;20051;-66
2022/03/08 01:57:57;;;;;;;34.47;25.23;;;;;;;;;;4994926;28;20046;-66
2022/03/08 02:00:28;;;;;;;26.70;22.52;;;;;;;;;;4994696;28;20065;-66
2022/03/08 02:02:56;;;;;;;31.55;25.02;;;;;;;;;;4995877;28;20054;-66
2022/03/08 02:05:25;;;;;;;33.42;22.45;;;;;;;;;;4995542;28;20096;-66
2022/03/08 02:07:52;;;;;;;32.05;24.00;;;;;;;;;;4995394;28;20058;-67
2022/03/08 02:10:20;;;;;;;33.22;22.92;;;;;;;;;;4996396;28;20074;-67
2022/03/08 02:12:48;;;;;;;28.48;22.25;;;;;;;;;;4996234;28;20050;-66
2022/03/08 02:15:21;;;;;;;37.28;23.50;;;;;;;;;;4996078;28;20050;-66
2022/03/08 02:17:49;;;;;;;33.42;25.60;;;;;;;;;;4994185;28;20054;-66
2022/03/08 02:20:17;;;;;;;36.70;21.75;;;;;;;;;;4981630;28;20043;-66
2022/03/08 02:22:47;;;;;;;31.23;22.70;;;;;;;;;;4976692;28;20053;-66
2022/03/08 02:25:15;;;;;;;30.23;22.98;;;;;;;;;;4976345;28;20043;-66
2022/03/08 02:27:46;;;;;;;36.42;21.73;;;;;;;;;;4984257;28;20077;-66
2022/03/08 02:30:15;;;;;;;29.50;23.73;;;;;;;;;;4994377;28;20058;-66
2022/03/08 02:32:43;;;;;;;32.72;24.85;;;;;;;;;;4983975;28;20062;-66
2022/03/08 02:35:13;;;;;;;30.45;23.92;;;;;;;;;;4992424;28;20046;-66
2022/03/08 02:37:47;;;;;;;31.65;24.60;;;;;;;;;;4994504;28;20046;-66
2022/03/08 02:40:17;;;;;;;35.20;23.80;;;;;;;;;;5009829;28;20055;-66
2022/03/08 02:42:45;;;;;;;37.90;26.33;;;;;;;;;;4981335;28;20102;-66
2022/03/08 02:45:13;;;;;;;40.50;26.77;;;;;;;;;;4976297;28;20181;-66
2022/03/08 02:47:41;;;;;;;37.10;25.15;;;;;;;;;;4980564;28;20058;-68
2022/03/08 02:50:11;;;;;;;32.83;24.55;;;;;;;;;;4987148;28;20428;-68
2022/03/08 02:52:42;;;;;;;39.35;26.40;;;;;;;;;;4975942;28;20053;-68
2022/03/08 02:55:11;;;;;;;36.55;25.80;;;;;;;;;;4981433;28;20046;-68
2022/03/08 02:57:40;;;;;;;33.92;25.20;;;;;;;;;;4993624;28;20069;-67
2022/03/08 03:00:11;;;;;;;32.80;23.30;;;;;;;;;;4995196;28;20104;-67
2022/03/08 03:02:39;;;;;;;37.33;24.85;;;;;;;;;;4994922;28;20576;-67
2022/03/08 03:05:07;;;;;;;32.00;26.02;;;;;;;;;;4994824;28;20449;-67
2022/03/08 03:07:35;;;;;;;38.47;27.20;;;;;;;;;;4994785;28;20043;-67
2022/03/08 03:10:06;;;;;;;31.08;23.42;;;;;;;;;;4994155;28;20084;-67
2022/03/08 03:12:34;;;;;;;33.53;25.40;;;;;;;;;;4994388;28;20490;-67
2022/03/08 03:15:06;;;;;;;35.00;27.48;;;;;;;;;;4995026;28;20046;-67
2022/03/08 03:17:33;;;;;;;45.30;25.92;;;;;;;;;;4994471;28;20776;-67
2022/03/08 03:20:01;;;;;;;31.55;24.23;;;;;;;;;;4978386;28;20146;-67
2022/03/08 03:22:28;;;;;;;29.20;21.73;;;;;;;;;;4975172;28;20069;-67
2022/03/08 03:24:56;;;;;;;36.88;23.85;;;;;;;;;;4975617;28;20074;-67
2022/03/08 03:27:23;;;;;;;37.08;24.55;;;;;;;;;;4984144;28;20077;-67
2022/03/08 03:29:51;;;;;;;32.72;23.92;;;;;;;;;;4978560;28;20159;-67
2022/03/08 03:32:20;;;;;;;35.72;24.17;;;;;;;;;;4975247;28;20051;-67
2022/03/08 03:34:47;;;;;;;32.17;24.33;;;;;;;;;;4982689;28;20082;-67
2022/03/08 03:37:15;;;;;;;38.53;27.55;;;;;;;;;;5009282;28;20061;-67
2022/03/08 03:39:43;;;;;;;35.92;25.25;;;;;;;;;;5009042;28;20541;-67
2022/03/08 03:42:10;;;;;;;36.88;24.83;;;;;;;;;;4982656;28;20051;-67
2022/03/08 03:44:38;;;;;;;31.35;22.98;;;;;;;;;;4980620;28;20046;-67
2022/03/08 03:47:07;;;;;;;39.63;26.58;;;;;;;;;;4980500;28;20557;-67
2022/03/08 03:49:34;;;;;;;35.08;22.33;;;;;;;;;;4993352;28;20068;-67
2022/03/08 03:52:02;;;;;;;27.67;21.90;;;;;;;;;;4993886;28;20072;-67
2022/03/08 03:54:30;;;;;;;29.40;22.40;;;;;;;;;;4977004;28;20051;-67
2022/03/08 03:56:59;;;;;;;34.33;23.58;;;;;;;;;;4993930;28;20409;-67
2022/03/08 03:59:27;;;;;;;27.42;20.50;;;;;;;;;;4994232;28;20058;-66
2022/03/08 04:01:55;;;;;;;29.55;23.52;;;;;;;;;;4992317;28;20134;-66
2022/03/08 04:04:23;;;;;;;32.92;21.13;;;;;;;;;;4992934;28;20050;-66
2022/03/08 04:06:50;;;;;;;30.17;22.05;;;;;;;;;;4993066;28;20050;-66
2022/03/08 04:09:17;;;;;;;27.75;21.55;;;;;;;;;;4993352;28;20442;-66
2022/03/08 04:11:46;;;;;;;31.00;21.80;;;;;;;;;;4976881;28;20512;-66
2022/03/08 04:14:13;;;;;;;34.75;23.20;;;;;;;;;;4994022;28;20065;-66
2022/03/08 04:16:41;;;;;;;32.92;23.13;;;;;;;;;;4993544;28;20057;-66
2022/03/08 04:19:09;;;;;;;28.83;21.85;;;;;;;;;;4985061;28;20061;-66
2022/03/08 04:21:36;;;;;;;31.55;22.63;;;;;;;;;;4974948;28;20039;-66
2022/03/08 04:24:05;;;;;;;33.53;23.13;;;;;;;;;;4985252;28;20054;-66
2022/03/08 04:26:32;;;;;;;35.05;21.40;;;;;;;;;;4978771;28;20129;-66
2022/03/08 04:29:00;;;;;;;34.08;24.00;;;;;;;;;;4985902;28;20123;-66
2022/03/08 04:31:27;;;;;;;28.02;22.13;;;;;;;;;;4983924;28;20057;-66
2022/03/08 04:33:54;;;;;;;28.33;21.90;;;;;;;;;;4992203;28;20054;-66
2022/03/08 04:36:22;;;;;;;30.38;22.35;;;;;;;;;;5008514;28;20528;-66
2022/03/08 04:38:55;;;;;;;28.30;21.02;;;;;;;;;;4986811;28;20584;-66
2022/03/08 04:41:22;;;;;;;31.88;22.55;;;;;;;;;;4983212;28;20046;-67
2022/03/08 04:43:50;;;;;;;31.75;22.17;;;;;;;;;;4990784;28;20088;-67
2022/03/08 04:46:18;;;;;;;33.53;22.63;;;;;;;;;;4993049;28;20050;-66
2022/03/08 04:48:46;;;;;;;33.97;22.83;;;;;;;;;;4985405;28;20050;-66
2022/03/08 04:51:13;;;;;;;33.00;24.90;;;;;;;;;;4979248;28;20459;-66
2022/03/08 04:53:42;;;;;;;30.63;25.15;;;;;;;;;;4979484;28;20069;-66
2022/03/08 04:56:10;;;;;;;36.05;23.75;;;;;;;;;;4981009;28;20047;-66
2022/03/08 04:58:39;;;;;;;34.08;24.95;;;;;;;;;;4981751;28;20050;-66
2022/03/08 05:01:07;;;;;;;33.08;23.95;;;;;;;;;;4979613;28;20856;-66
2022/03/08 05:03:34;;;;;;;36.70;24.85;;;;;;;;;;4991561;28;20532;-66
2022/03/08 05:06:02;;;;;;;32.97;24.40;;;;;;;;;;4994705;28;20058;-66
2022/03/08 05:08:31;;;;;;;35.70;26.38;;;;;;;;;;4990290;28;20046;-66
2022/03/08 05:10:59;;;;;;;37.78;24.08;;;;;;;;;;4988029;28;20059;-66
2022/03/08 05:13:27;;;;;;;32.72;24.83;;;;;;;;;;4978683;28;20086;-66
2022/03/08 05:15:55;;;;;;;37.45;26.33;;;;;;;;;;4995205;28;20051;-66
2022/03/08 05:18:23;;;;;;;31.73;23.95;;;;;;;;;;4982721;28;20073;-66
2022/03/08 05:20:50;;;;;;;34.15;25.55;;;;;;;;;;4989802;28;20046;-66
2022/03/08 05:23:18;;;;;;;40.35;25.85;;;;;;;;;;4995803;28;20057;-66
2022/03/08 05:25:46;;;;;;;34.75;25.95;;;;;;;;;;4995480;28;20145;-66
2022/03/08 05:28:14;;;;;;;32.92;25.00;;;;;;;;;;4976087;28;20043;-66
2022/03/08 05:30:42;;;;;;;39.25;25.15;;;;;;;;;;4990608;28;20045;-66
2022/03/08 05:33:10;;;;;;;36.33;26.15;;;;;;;;;;4994892;28;20137;-66
2022/03/08 05:35:37;;;;;;;30.73;24.25;;;;;;;;;;4995459;28;20073;-66
2022/03/08 05:38:04;;;;;;;35.78;26.58;;;;;;;;;;4977282;28;20105;-66
2022/03/08 05:40:33;;;;;;;36.20;27.95;;;;;;;;;;4989521;28;20046;-66
2022/03/08 05:43:01;;;;;;;35.80;24.55;;;;;;;;;;4988705;28;20077;-66
2022/03/08 05:45:29;;;;;;;34.25;25.38;;;;;;;;;;4977522;28;20516;-66
2022/03/08 05:47:56;;;;;;;40.08;26.13;;;;;;;;;;4988625;28;20073;-66
2022/03/08 05:50:25;;;;;;;28.40;22.63;;;;;;;;;;4977227;28;20526;-66
2022/03/08 05:52:53;;;;;;;31.92;23.42;;;;;;;;;;4977682;28;20042;-68
2022/03/08 05:55:20;;;;;;;34.45;25.50;;;;;;;;;;4988652;28;20441;-68
2022/03/08 05:57:48;;;;;;;31.52;23.60;;;;;;;;;;4990425;28;20056;-68
2022/03/08 06:00:15;;;;;;;31.60;25.02;;;;;;;;;;5009458;28;20042;-67
2022/03/08 06:02:43;;;;;;;31.40;23.00;;;;;;;;;;4979216;28;20460;-67
2022/03/08 06:05:11;;;;;;;33.92;23.27;;;;;;;;;;4986618;28;20059;-67
2022/03/08 06:07:39;;;;;;;32.72;24.13;;;;;;;;;;4980691;28;20121;-67
2022/03/08 06:10:08;;;;;;;35.30;24.08;;;;;;;;;;4980277;28;20065;-67
2022/03/08 06:12:36;;;;;;;32.10;23.67;;;;;;;;;;4981191;28;20062;-67
2022/03/08 06:15:04;;;;;;;32.40;25.33;;;;;;;;;;4981524;28;20149;-68
2022/03/08 06:17:31;;;;;;;31.20;23.67;;;;;;;;;;4983528;28;20100;-65
2022/03/08 06:19:59;;;;;;;35.03;24.42;;;;;;;;;;4987137;28;20089;-65
2022/03/08 06:22:27;;;;;;;36.65;26.17;;;;;;;;;;4989247;28;20465;-65
2022/03/08 06:24:55;;;;;;;32.45;26.15;;;;;;;;;;4986024;28;20121;-66
2022/03/08 06:27:22;;;;;;;31.35;23.17;;;;;;;;;;4992922;28;20042;-66
2022/03/08 06:29:51;;;;;;;34.13;24.23;;;;;;;;;;4993205;28;20050;-66
2022/03/08 06:32:19;;;;;;;37.25;24.83;;;;;;;;;;4994913;28;20058;-66
2022/03/08 06:34:46;;;;;;;38.70;26.83;;;;;;;;;;4994652;28;20049;-67
2022/03/08 06:37:14;;;;;;;31.65;25.50;;;;;;;;;;4994371;28;20125;-66
2022/03/08 06:39:41;;;;;;;35.35;25.08;;;;;;;;;;4988288;28;20061;-66
2022/03/08 06:42:09;;;;;;;33.40;24.52;;;;;;;;;;4991904;28;20100;-66
2022/03/08 06:44:38;;;;;;;34.00;25.25;;;;;;;;;;4994534;28;20122;-66
2022/03/08 06:47:08;;;;;;;33.63;26.75;;;;;;;;;;4994221;28;20057;-67
2022/03/08 06:49:41;;;;;;;37.65;25.30;;;;;;;;;;4991762;28;20050;-67
2022/03/08 06:52:10;;;;;;;35.75;24.35;;;;;;;;;;4984888;28;20083;-67
2022/03/08 06:54:38;;;;;;;37.28;25.58;;;;;;;;;;4987496;28;20085;-69
2022/03/08 06:57:06;;;;;;;34.47;25.35;;;;;;;;;;4985018;28;20066;-69
2022/03/08 06:59:33;;;;;;;36.42;25.70;;;;;;;;;;4980748;28;20046;-69
2022/03/08 07:02:01;;;;;;;29.42;23.30;;;;;;;;;;4983067;28;20051;-69
2022/03/08 07:04:29;;;;;;;36.33;27.40;;;;;;;;;;4983197;28;20062;-67
2022/03/08 07:06:57;;;;;;;38.55;27.70;;;;;;;;;;4986185;28;20141;-67
2022/03/08 07:09:24;;;;;;;36.72;28.63;;;;;;;;;;4989391;28;20054;-68
2022/03/08 07:11:52;;;;;;;35.72;25.45;;;;;;;;;;4989574;28;20061;-68
2022/03/08 07:14:21;;;;;;;34.58;25.25;;;;;;;;;;4988731;28;20049;-67
2022/03/08 07:16:49;;;;;;;43.13;26.83;;;;;;;;;;4987927;28;20050;-68
2022/03/08 07:19:18;;;;;;;35.90;24.52;;;;;;;;;;4985416;28;20042;-68
2022/03/08 07:21:46;;;;;;;38.90;25.30;;;;;;;;;;4987354;28;20042;-68
2022/03/08 07:24:14;;;;;;;38.95;27.13;;;;;;;;;;4988799;28;20047;-67
2022/03/08 07:26:42;;;;;;;36.28;27.02;;;;;;;;;;4989222;28;20053;-67
2022/03/08 07:29:11;;;;;;;37.80;26.70;;;;;;;;;;4992441;28;20046;-67
2022/03/08 07:31:38;;;;;;;34.42;23.90;;;;;;;;;;4992299;28;20047;-67
2022/03/08 07:34:06;;;;;;;37.17;26.30;;;;;;;;;;4992331;28;20494;-68
2022/03/08 07:36:34;;;;;;;43.05;30.63;;;;;;;;;;4993794;28;20050;-67
2022/03/08 07:39:03;;;;;;;45.08;28.73;;;;;;;;;;4994168;28;20518;-68
2022/03/08 07:41:31;;;;;;;35.85;27.17;;;;;;;;;;4994138;28;20066;-67
2022/03/08 07:44:01;;;;;;;37.42;25.45;;;;;;;;;;4993792;28;20129;-68
2022/03/08 07:46:29;;;;;;;39.53;27.08;;;;;;;;;;4993235;28;20553;-68
2022/03/08 07:48:57;;;;;;;38.22;26.08;;;;;;;;;;4977145;28;20590;-67
2022/03/08 07:51:45;;;;;;;38.63;26.52;;;;;;;;;;4992849;28;20042;-67
2022/03/08 07:54:13;;;;;;;34.20;26.10;;;;;;;;;;4992721;28;20498;-67
2022/03/08 07:56:41;;;;;;;39.22;27.15;;;;;;;;;;4984496;28;20082;-67
2022/03/08 07:59:08;;;;;;;34.35;26.08;;;;;;;;;;4986702;28;20571;-68
2022/03/08 08:01:36;;;;;;;42.10;25.98;;;;;;;;;;4975196;28;20525;-68
2022/03/08 08:04:03;;;;;;;46.53;28.27;;;;;;;;;;4986634;28;20529;-68
2022/03/08 08:06:32;;;;;;;45.20;31.23;;;;;;;;;;4974822;28;20062;-67
2022/03/08 08:09:00;;;;;;;67.70;42.33;;;;;;;;;;4984311;28;20043;-67
2022/03/08 08:11:26;;;;;;;72.90;42.08;;;;;;;;;;4976356;28;20578;-67
2022/03/08 08:13:55;;;;;;;60.88;37.33;;;;;;;;;;4976919;28;20516;-67
2022/03/08 08:16:25;;;;;;;56.58;34.85;;;;;;;;;;4993724;28;20137;-68
2022/03/08 08:18:54;;;;;;;45.10;30.02;;;;;;;;;;4977696;28;20449;-68
2022/03/08 08:21:22;;;;;;;43.10;28.05;;;;;;;;;;4980128;28;20058;-67
2022/03/08 08:23:56;;;;;;;39.25;27.52;;;;;;;;;;4982212;28;20070;-68
2022/03/08 08:26:23;;;;;;;38.35;26.48;;;;;;;;;;4984686;28;20038;-67
2022/03/08 08:28:51;;;;;;;35.15;24.77;;;;;;;;;;4977074;28;20050;-67
2022/03/08 08:31:18;;;;;;;28.42;22.17;;;;;;;;;;4992595;28;20050;-67
2022/03/08 08:33:45;;;;;;;28.65;21.27;;;;;;;;;;4995331;28;20130;-67
2022/03/08 08:36:13;;;;;;;35.20;20.65;;;;;;;;;;4978650;28;20055;-67
2022/03/08 08:38:41;;;;;;;33.88;23.48;;;;;;;;;;4976948;28;20133;-67
2022/03/08 08:41:08;;;;;;;33.00;20.30;;;;;;;;;;4992629;28;20051;-67
2022/03/08 08:43:36;;;;;;;28.52;19.73;;;;;;;;;;4985923;28;20102;-67
2022/03/08 08:46:03;;;;;;;23.17;15.40;;;;;;;;;;4992594;28;20125;-68
2022/03/08 08:48:31;;;;;;;34.80;19.40;;;;;;;;;;4997472;28;20047;-67
2022/03/08 08:50:59;;;;;;;25.60;20.42;;;;;;;;;;4997627;28;20046;-67
2022/03/08 08:53:29;;;;;;;30.02;16.02;;;;;;;;;;4996229;28;20055;-67
2022/03/08 08:55:56;;;;;;;24.10;16.30;;;;;;;;;;4996462;28;20433;-68
2022/03/08 08:58:24;;;;;;;29.63;15.38;;;;;;;;;;4991295;28;20050;-67
2022/03/08 09:00:52;;;;;;;25.50;16.02;;;;;;;;;;4977903;28;20414;-67
2022/03/08 09:03:21;;;;;;;18.98;13.00;;;;;;;;;;4977967;28;20451;-67
2022/03/08 09:05:49;;;;;;;22.60;12.32;;;;;;;;;;4983381;28;20054;-68
2022/03/08 09:08:24;;;;;;;17.30;12.32;;;;;;;;;;4996063;28;20096;-67
2022/03/08 09:10:52;;;;;;;25.77;13.93;;;;;;;;;;4980432;28;20077;-67
2022/03/08 09:13:22;;;;;;;23.80;11.88;;;;;;;;;;4996869;28;20074;-68
2022/03/08 09:15:49;;;;;;;19.48;13.43;;;;;;;;;;4996967;28;20054;-68
2022/03/08 09:18:17;;;;;;;18.13;11.68;;;;;;;;;;4996836;28;20649;-68
2022/03/08 09:20:44;;;;;;;12.95;8.70;;;;;;;;;;4984257;28;20043;-67
2022/03/08 09:23:12;;;;;;;13.13;8.80;;;;;;;;;;4977188;28;20046;-68
2022/03/08 09:25:40;;;;;;;13.50;9.23;;;;;;;;;;4994432;28;20169;-68
2022/03/08 09:28:08;;;;;;;11.52;7.93;;;;;;;;;;4979043;28;20082;-68
2022/03/08 09:30:36;;;;;;;13.07;7.90;;;;;;;;;;4996535;28;20050;-68
2022/03/08 09:33:05;;;;;;;11.30;9.27;;;;;;;;;;4995576;28;20449;-68
2022/03/08 09:35:32;;;;;;;10.50;8.52;;;;;;;;;;4997162;28;20153;-68
2022/03/08 09:38:00;;;;;;;9.60;8.13;;;;;;;;;;4979585;28;20046;-68
2022/03/08 09:40:28;;;;;;;11.18;8.65;;;;;;;;;;4994629;28;20189;-68
2022/03/08 09:42:56;;;;;;;7.47;5.55;;;;;;;;;;4996358;28;20133;-68
2022/03/08 09:45:25;;;;;;;10.50;7.15;;;;;;;;;;4995086;28;20409;-68
2022/03/08 09:47:54;;;;;;;7.90;6.78;;;;;;;;;;4996650;28;20049;-68
2022/03/08 09:50:21;;;;;;;10.82;8.32;;;;;;;;;;4996133;28;20101;-68
2022/03/08 09:52:49;;;;;;;8.32;7.45;;;;;;;;;;4992971;28;20054;-68
2022/03/08 09:55:17;;;;;;;9.10;8.07;;;;;;;;;;4976141;28;20065;-68
2022/03/08 09:57:48;;;;;;;8.73;7.53;;;;;;;;;;4976641;28;20046;-68
2022/03/08 10:00:15;;;;;;;12.25;8.23;;;;;;;;;;4979610;28;20451;-68
2022/03/08 10:02:48;;;;;;;14.40;7.07;;;;;;;;;;4975999;28;20071;-68
2022/03/08 10:05:20;;;;;;;14.23;7.00;;;;;;;;;;4977004;28;20054;-68
2022/03/08 10:08:10;;;;;;;7.35;6.30;;;;;;;;;;4976991;28;20437;-68
2022/03/08 10:10:50;;;;;;;13.63;6.25;;;;;;;;;;4976804;28;20144;-68
2022/03/08 10:13:50;;;;;;;14.30;7.03;;;;;;;;;;4977012;28;20050;-68
2022/03/08 10:16:43;;;;;;;9.98;6.18;;;;;;;;;;4977028;28;20129;-68
2022/03/08 10:19:18;;;;;;;8.55;5.82;;;;;;;;;;4991779;28;20046;-68
2022/03/08 10:21:47;;;;;;;7.53;5.45;;;;;;;;;;4994550;28;20050;-68
2022/03/08 10:24:20;;;;;;;11.70;7.55;;;;;;;;;;4995746;28;20050;-68
2022/03/08 10:26:57;;;;;;;11.57;6.07;;;;;;;;;;4994401;28;20141;-68
2022/03/08 10:29:36;;;;;;;12.13;6.47;;;;;;;;;;4995746;28;20046;-68
2022/03/08 10:32:11;;;;;;;7.20;5.45;;;;;;;;;;4995622;28;20177;-68
2022/03/08 10:34:39;;;;;;;6.78;6.07;;;;;;;;;;4994972;28;20544;-68
2022/03/08 10:37:19;;;;;;;7.25;6.47;;;;;;;;;;4995905;28;20592;-68
2022/03/08 10:39:50;;;;;;;9.88;6.05;;;;;;;;;;4995647;28;20078;-68
2022/03/08 10:42:29;;;;;;;8.50;6.53;;;;;;;;;;4995316;28;20050;-68
2022/03/08 10:45:16;;;;;;;9.60;6.63;;;;;;;;;;4982766;28;20565;-68
2022/03/08 10:47:45;;;;;;;8.00;6.65;;;;;;;;;;4978058;28;20387;-68
2022/03/08 10:50:18;;;;;;;9.73;6.22;;;;;;;;;;4994351;28;20513;-68
2022/03/08 10:52:48;;;;;;;7.65;6.22;;;;;;;;;;4995120;28;20122;-68
2022/03/08 10:55:23;;;;;;;12.57;7.10;;;;;;;;;;4994100;28;20054;-68
2022/03/08 10:57:54;;;;;;;10.90;7.00;;;;;;;;;;4995147;28;20076;-68
2022/03/08 11:00:34;;;;;;;17.35;6.97;;;;;;;;;;4982781;28;20074;-68
2022/03/08 11:03:05;;;;;;;9.95;7.38;;;;;;;;;;4975604;28;20074;-68
2022/03/08 11:05:35;;;;;;;7.78;6.97;;;;;;;;;;4985950;28;20054;-68
2022/03/08 11:08:03;;;;;;;10.10;6.90;;;;;;;;;;4994674;28;20137;-68
2022/03/08 11:10:33;;;;;;;9.10;7.13;;;;;;;;;;4994153;28;20069;-68
2022/03/08 11:13:02;;;;;;;11.13;7.10;;;;;;;;;;4994870;28;20507;-68
2022/03/08 11:15:31;;;;;;;8.82;6.82;;;;;;;;;;4993803;28;20133;-68
2022/03/08 11:18:00;;;;;;;13.30;8.13;;;;;;;;;;4993633;28;20054;-68
2022/03/08 11:20:28;;;;;;;10.18;8.50;;;;;;;;;;4994753;28;20449;-68
2022/03/08 11:22:57;;;;;;;8.90;7.95;;;;;;;;;;4995191;28;20056;-69
2022/03/08 11:25:26;;;;;;;10.30;8.85;;;;;;;;;;4990821;28;20150;-68
2022/03/08 11:28:14;;;;;;;9.05;7.50;;;;;;;;;;4975266;28;20050;-68
2022/03/08 11:31:04;;;;;;;17.05;7.90;;;;;;;;;;4974176;28;20051;-68
2022/03/08 11:34:00;;;;;;;9.77;8.27;;;;;;;;;;4993392;28;20496;-68
2022/03/08 11:36:33;;;;;;;9.85;8.05;;;;;;;;;;4987277;28;20414;-69
2022/03/08 11:39:21;;;;;;;14.57;9.85;;;;;;;;;;4972762;28;20380;-69
2022/03/08 11:41:53;;;;;;;14.93;10.07;;;;;;;;;;4974851;28;20051;-66
2022/03/08 11:44:34;;;;;;;9.60;8.60;;;;;;;;;;4974819;28;20093;-67
2022/03/08 11:47:09;;;;;;;9.85;8.85;;;;;;;;;;4974938;28;20051;-69
2022/03/08 11:49:41;;;;;;;13.05;10.38;;;;;;;;;;4974877;28;20050;-68
2022/03/08 11:52:18;;;;;;;10.75;9.18;;;;;;;;;;4974265;28;20050;-68
2022/03/08 11:54:57;;;;;;;16.30;9.70;;;;;;;;;;4975374;28;20101;-68
2022/03/08 11:57:49;;;;;;;10.80;8.80;;;;;;;;;;4974913;28;20078;-69
2022/03/08 12:00:27;;;;;;;12.80;9.18;;;;;;;;;;4974806;28;20098;-68
2022/03/08 12:02:59;;;;;;;11.80;9.35;;;;;;;;;;4974652;28;20069;-68
2022/03/08 12:05:50;;;;;;;10.07;8.23;;;;;;;;;;4974802;28;20054;-69
2022/03/08 12:08:29;;;;;;;14.30;12.85;;;;;;;;;;4973631;28;20074;-69
2022/03/08 12:11:01;;;;;;;15.85;10.85;;;;;;;;;;4986392;28;20134;-68
2022/03/08 12:13:40;;;;;;;13.32;9.13;;;;;;;;;;4994016;28;20138;-69
2022/03/08 12:16:08;;;;;;;11.60;9.48;;;;;;;;;;4994079;28;20077;-68
2022/03/08 12:18:38;;;;;;;10.63;7.97;;;;;;;;;;4993595;28;20054;-69
2022/03/08 12:21:14;;;;;;;11.82;8.57;;;;;;;;;;4993733;28;20159;-68
2022/03/08 12:23:53;;;;;;;11.60;9.60;;;;;;;;;;4993730;28;20046;-68
2022/03/08 12:26:55;;;;;;;13.00;9.15;;;;;;;;;;4993816;28;20054;-68
2022/03/08 12:29:57;;;;;;;12.85;9.43;;;;;;;;;;4993864;28;20046;-68
2022/03/08 12:32:41;;;;;;;12.48;8.32;;;;;;;;;;4994095;28;20065;-68
2022/03/08 12:35:35;;;;;;;10.35;8.45;;;;;;;;;;4992715;28;20046;-68
2022/03/08 12:38:17;;;;;;;9.90;8.60;;;;;;;;;;4980173;28;20054;-68
2022/03/08 12:40:49;;;;;;;11.43;8.27;;;;;;;;;;4978312;28;20049;-68
2022/03/08 12:43:16;;;;;;;10.07;8.50;;;;;;;;;;4992397;28;20062;-68
2022/03/08 12:45:46;;;;;;;13.70;9.40;;;;;;;;;;4992006;28;20058;-68
2022/03/08 12:48:16;;;;;;;11.27;9.13;;;;;;;;;;4992843;28;20046;-68
2022/03/08 12:50:48;;;;;;;11.52;8.70;;;;;;;;;;4993736;28;20054;-68
2022/03/08 12:53:24;;;;;;;17.00;9.98;;;;;;;;;;4993909;28;20054;-68
2022/03/08 12:56:05;;;;;;;11.15;8.63;;;;;;;;;;4992752;28;20133;-68
2022/03/08 12:58:36;;;;;;;9.30;8.35;;;;;;;;;;4992609;28;20046;-68
2022/03/08 13:01:09;;;;;;;12.57;9.95;;;;;;;;;;4994168;28;20074;-68
2022/03/08 13:03:46;;;;;;;10.98;9.32;;;;;;;;;;4993761;28;20050;-68
2022/03/08 13:06:19;;;;;;;12.57;8.27;;;;;;;;;;4994104;28;20371;-68
2022/03/08 13:08:47;;;;;;;12.48;8.55;;;;;;;;;;4993555;28;20054;-68
2022/03/08 13:11:15;;;;;;;13.23;8.95;;;;;;;;;;4993434;28;20053;-68
2022/03/08 13:13:49;;;;;;;15.45;9.98;;;;;;;;;;4993088;28;20057;-68
2022/03/08 13:16:18;;;;;;;11.63;8.35;;;;;;;;;;4996518;28;20050;-68
2022/03/08 13:18:47;;;;;;;9.55;8.00;;;;;;;;;;4997067;28;20387;-68
2022/03/08 13:21:16;;;;;;;10.82;9.70;;;;;;;;;;4997217;28;20042;-68
2022/03/08 13:23:45;;;;;;;10.55;8.43;;;;;;;;;;4995395;28;20474;-68
2022/03/08 13:29:16;;;;;;;12.02;9.15;;;;;;;;;;4996873;28;20052;-68
2022/03/08 13:31:47;;;;;;;10.50;9.35;;;;;;;;;;4996696;28;20119;-68
2022/03/08 13:34:15;;;;;;;10.40;8.48;;;;;;;;;;4996376;28;20050;-68
2022/03/08 13:36:52;;;;;;;12.40;8.45;;;;;;;;;;4995742;28;20046;-68
2022/03/08 13:39:20;;;;;;;10.82;7.82;;;;;;;;;;4996897;28;20477;-68
2022/03/08 13:41:48;;;;;;;13.70;8.85;;;;;;;;;;4996569;28;20460;-68
2022/03/08 13:44:15;;;;;;;17.33;9.73;;;;;;;;;;4995647;28;20053;-68
2022/03/08 13:46:46;;;;;;;11.38;8.02;;;;;;;;;;4995283;28;20050;-68
2022/03/08 13:49:19;;;;;;;10.30;7.65;;;;;;;;;;4992563;28;20101;-69
2022/03/08 13:51:46;;;;;;;10.27;7.78;;;;;;;;;;4975563;28;20189;-68
2022/03/08 13:54:16;;;;;;;12.48;7.88;;;;;;;;;;4977676;28;20077;-68
2022/03/08 13:56:50;;;;;;;9.75;8.13;;;;;;;;;;4984538;28;20053;-68
2022/03/08 13:59:29;;;;;;;10.23;8.13;;;;;;;;;;4995058;28;20077;-68
2022/03/08 14:02:04;;;;;;;14.05;7.80;;;;;;;;;;4996030;28;20509;-68
2022/03/08 14:04:33;;;;;;;10.50;7.03;;;;;;;;;;4996141;28;20054;-68
2022/03/08 14:07:03;;;;;;;10.85;7.55;;;;;;;;;;4994853;28;20057;-68
2022/03/08 14:09:31;;;;;;;8.07;7.22;;;;;;;;;;4996583;28;20129;-69
2022/03/08 14:12:01;;;;;;;9.60;7.63;;;;;;;;;;4987092;28;20051;-69
2022/03/08 14:14:29;;;;;;;11.43;9.57;;;;;;;;;;4996401;28;20081;-68
2022/03/08 14:16:57;;;;;;;19.45;8.98;;;;;;;;;;4995121;28;20054;-69
2022/03/08 14:19:47;;;;;;;13.40;8.02;;;;;;;;;;4995074;28;20048;-68
2022/03/08 14:22:16;;;;;;;15.02;8.77;;;;;;;;;;4996026;28;20489;-68
2022/03/08 14:25:03;;;;;;;8.27;7.43;;;;;;;;;;4995479;28;20058;-68
2022/03/08 14:27:49;;;;;;;10.50;8.15;;;;;;;;;;4987393;28;20050;-67
2022/03/08 14:30:41;;;;;;;8.73;6.63;;;;;;;;;;4976304;28;20565;-69
2022/03/08 14:33:10;;;;;;;10.25;7.50;;;;;;;;;;4976574;28;20081;-69
2022/03/08 14:35:37;;;;;;;7.85;6.35;;;;;;;;;;4980213;28;20062;-69
2022/03/08 14:38:06;;;;;;;8.25;6.93;;;;;;;;;;5010513;28;20108;-71
2022/03/08 14:40:44;;;;;;;8.02;7.22;;;;;;;;;;4979442;28;20051;-69
2022/03/08 14:43:12;;;;;;;8.70;7.75;;;;;;;;;;4976219;28;20039;-70
2022/03/08 14:45:39;;;;;;;11.35;7.35;;;;;;;;;;4975872;28;20137;-69